ADDS METAR Data INFO
IDs: Format: Raw Decoded Include TAF

Data at: 0713 UTC 24 Jun 2018

KMYV 240653Z AUTO 35004KT 10SM CLR 25/11 A2967 RMK AO2 SLP049 T02500111 $
KMYV 240553Z AUTO 27003KT 10SM 26/11 A2967 RMK AO2 SLP049 60000 T02560111 10394 20256 53008 $
KMYV 240453Z AUTO 16006KT 10SM 28/09 A2966 RMK AO2 SLP047 T02830094 $
KMYV 240353Z AUTO 29006KT 10SM CLR 31/09 A2964 RMK AO2 RAE43 SLP041 P0000 T03060089
KMYV 240253Z AUTO 30006KT 10SM -RA CLR 35/09 A2964 RMK AO2 SLP041 P0000 60000 T03500089 56015
KMYV 240153Z AUTO 10SM -RA CLR 38/08 A2965 RMK AO2 SLP044 P0000 T03780083
KMYV 240053Z AUTO 33012KT 10SM -RA CLR 39/07 A2966 RMK AO2 SLP047 P0000 T03890072
KMYV 232353Z AUTO 33012G23KT 10SM -RA CLR 39/08 A2969 RMK AO2 SLP055 P0000 60000 T03940078 10394 20322 56013
KMYV 232253Z AUTO 32013KT 10SM -RA CLR 39/06 A2970 RMK AO2 SLP059 P0000 T03890061
KMYV 232153Z AUTO 34013KT 10SM -RA CLR 38/08 A2971 RMK AO2 SLP064 P0000 T03830083
KMYV 232053Z AUTO 34013KT 10SM -RA CLR 37/09 A2972 RMK AO2 SLP068 P0000 60000 T03720089 58013
KMYV 231953Z AUTO 32012KT 10SM -RA CLR 36/11 A2974 RMK AO2 RAB1854 SLP074 P0000 T03560106
KMYV 231853Z AUTO 34013G20KT 10SM CLR 34/10 A2975 RMK AO2 RAB48E52 SLP078 P0000 T03440100
KMYV 231753Z AUTO 33015KT 10SM CLR 32/09 A2976 RMK AO2 SLP081 T03220094 10322 20217 58006
KMYV 231653Z AUTO 34017G22KT 10SM CLR 30/08 A2977 RMK AO2 SLP085 T03000083
KMYV 231553Z AUTO 34012KT 10SM CLR 28/08 A2978 RMK AO2 SLP087 T02780083
KMYV 231453Z AUTO 34010KT 10SM CLR 26/09 A2978 RMK AO2 SLP087 T02610089 51006
KMYV 231353Z AUTO 34007KT 10SM CLR 24/08 A2977 RMK AO2 SLP085 T02390083
KMYV 231253Z AUTO 36006KT 10SM CLR 23/09 A2977 RMK AO2 SLP083 T02280094
KMYV 231153Z AUTO 36003KT 10SM CLR 22/13 A2976 RMK AO2 SLP080 T02220128 10250 20189 53003
KMYV 231053Z AUTO 36006KT 10SM CLR 23/12 A2975 RMK AO2 SLP077 T02330122
KMYV 230953Z AUTO 31005KT 10SM CLR 19/16 A2975 RMK AO2 SLP078 T01890156
KMYV 230853Z AUTO 34004KT 10SM CLR 21/15 A2975 RMK AO2 SLP078 T02060150 53001
KMYV 230753Z AUTO 11004KT 10SM CLR 22/14 A2975 RMK AO2 SLP077 T02170139 403940128
KMYV 230653Z AUTO 00000KT 10SM CLR 25/14 A2975 RMK AO2 SLP077 T02500144
KMYV 230553Z AUTO 08005KT 10SM CLR 24/17 A2975 RMK AO2 SLP077 T02440167 10394 20244 53004
KMYV 230453Z AUTO 16003KT 10SM CLR 26/16 A2974 RMK AO2 SLP075 T02610161
KMYV 230353Z AUTO 00000KT 10SM CLR 30/17 A2974 RMK AO2 SLP072 T03000172
KMYV 230253Z AUTO 23004KT 10SM CLR 33/17 A2974 RMK AO2 SLP073 T03330167 56014
KMYV 230153Z AUTO 25006KT 10SM CLR 37/15 A2974 RMK AO2 SLP074 T03670150
KMYV 230053Z AUTO VRB04KT 10SM CLR 38/11 A2975 RMK AO2 SLP078 T03830111
KMYV 222353Z AUTO VRB05KT 10SM CLR 39/11 A2978 RMK AO2 SLP086 T03890106 10394 20294 56026
KMYV 222253Z AUTO 30005KT 10SM CLR 38/12 A2980 RMK AO2 SLP093 T03780122
KMYV 222153Z AUTO 10SM CLR 36/13 A2982 RMK AO2 SLP102 T03610133
KMYV 222053Z AUTO 10SM CLR 36/14 A2985 RMK AO2 SLP112 T03560139 58020
KMYV 221953Z AUTO 10SM CLR 34/12 A2988 RMK AO2 PK WND 28026/1937 SLP122 T03440117